createdAt,value
2023-06-09T00:04:54.022Z,100.00
2023-06-09T00:14:55.596Z,100.00
2023-06-09T00:24:57.166Z,100.00
2023-06-09T00:34:58.736Z,100.00
2023-06-09T00:45:00.272Z,100.00
2023-06-09T00:55:01.845Z,100.00
2023-06-09T01:05:03.409Z,100.00
2023-06-09T01:15:05.424Z,100.00
2023-06-09T01:45:09.768Z,100.00
2023-06-09T01:55:11.156Z,100.00
2023-06-09T02:05:12.613Z,100.00
2023-06-09T02:15:14.250Z,100.00
2023-06-09T02:25:15.733Z,100.00
2023-06-09T02:35:17.192Z,100.00
2023-06-09T02:45:18.698Z,100.00
2023-06-09T02:55:20.505Z,100.00
2023-06-09T03:05:21.773Z,100.00
2023-06-09T03:15:23.284Z,100.00
2023-06-09T03:25:24.729Z,100.00
2023-06-09T03:35:26.536Z,100.00
2023-06-09T03:45:27.748Z,100.00
2023-06-09T03:55:29.546Z,100.00
2023-06-09T04:05:30.725Z,100.00
2023-06-09T04:15:32.268Z,100.00
2023-06-09T04:25:33.764Z,100.00
2023-06-09T04:35:36.586Z,100.00
2023-06-09T04:45:36.933Z,100.00
2023-06-09T04:55:38.387Z,100.00
2023-06-09T05:05:40.069Z,100.00
2023-06-09T05:15:41.578Z,100.00
2023-06-09T05:25:43.268Z,100.00
2023-06-09T05:35:44.820Z,100.00
2023-06-09T05:45:46.743Z,100.00
2023-06-09T05:55:48.254Z,100.00
2023-06-09T06:05:50.048Z,100.00
2023-06-09T06:15:51.467Z,100.00
2023-06-09T06:25:53.024Z,100.00
2023-06-09T06:35:54.797Z,100.00
2023-06-09T06:45:56.124Z,100.00
2023-06-09T06:55:57.636Z,100.00
2023-06-09T07:05:59.149Z,100.00
2023-06-09T07:16:00.577Z,100.00
2023-06-09T07:26:02.106Z,100.00
2023-06-09T07:36:03.616Z,100.00
2023-06-09T07:46:05.163Z,100.00
2023-06-09T07:56:06.602Z,100.00
2023-06-09T08:06:08.181Z,100.00
2023-06-09T08:16:09.469Z,100.00
2023-06-09T08:26:10.844Z,100.00
2023-06-09T08:36:12.372Z,100.00
2023-06-09T08:46:13.934Z,100.00
2023-06-09T08:56:15.319Z,100.00
2023-06-09T09:26:19.866Z,100.00
2023-06-09T09:36:21.487Z,100.00
2023-06-09T09:46:23.119Z,100.00
2023-06-09T09:56:24.739Z,100.00
2023-06-09T10:06:26.454Z,100.00
2023-06-09T10:16:28.146Z,100.00
2023-06-09T10:36:31.663Z,100.00
2023-06-09T10:46:33.495Z,100.00
2023-06-09T10:56:35.236Z,100.00
2023-06-09T11:06:37.425Z,100.00
2023-06-09T11:16:38.849Z,100.00
2023-06-09T11:26:43.206Z,100.00
2023-06-09T11:36:44.153Z,100.00
2023-06-09T11:46:44.352Z,100.00
2023-06-09T11:56:45.923Z,100.00
2023-06-09T12:06:47.992Z,100.00
2023-06-09T12:16:49.654Z,99.33
2023-06-09T12:26:51.484Z,96.25
2023-06-09T12:36:53.418Z,95.63
2023-06-09T12:46:55.203Z,94.74
2023-06-09T12:56:57.082Z,94.53
2023-06-09T13:06:59.247Z,92.66
2023-06-09T13:27:02.744Z,89.12
2023-06-09T13:37:04.906Z,83.75
2023-06-09T13:47:06.632Z,83.11
2023-06-09T13:57:11.186Z,81.72
2023-06-09T14:07:10.656Z,83.80
2023-06-09T14:27:14.452Z,80.87
2023-06-09T14:37:16.732Z,81.61
2023-06-09T14:47:18.428Z,82.63
2023-06-09T14:57:20.655Z,82.18
2023-06-09T15:07:22.319Z,81.47
2023-06-09T15:17:24.237Z,80.87
2023-06-09T15:26:33.072Z,80.74
2023-06-09T15:27:26.360Z,80.74
2023-06-09T15:37:28.066Z,78.97
2023-06-09T15:47:30.039Z,78.47
2023-06-09T15:57:33.641Z,76.32
2023-06-09T16:07:33.860Z,76.72
2023-06-09T16:17:35.921Z,77.36
2023-06-09T16:27:37.790Z,75.10
2023-06-09T16:37:39.758Z,73.54
2023-06-09T16:47:41.876Z,74.05
2023-06-09T16:57:43.945Z,74.79
2023-06-09T17:07:45.668Z,75.02
2023-06-09T17:17:47.939Z,75.46
2023-06-09T17:27:49.788Z,76.41
2023-06-09T17:37:53.074Z,79.56
2023-06-09T17:47:53.519Z,79.37
2023-06-09T17:57:55.518Z,80.28
2023-06-09T18:07:57.359Z,82.89
2023-06-09T18:17:59.210Z,85.16
2023-06-09T18:28:02.500Z,84.94
2023-06-09T18:38:02.771Z,85.85
2023-06-09T18:48:04.552Z,86.91
2023-06-09T18:58:06.311Z,90.98
2023-06-09T19:08:08.051Z,94.83
2023-06-09T19:18:10.193Z,96.64
2023-06-09T19:28:11.626Z,96.57
2023-06-09T19:38:13.256Z,96.06
2023-06-09T19:48:15.129Z,96.43
2023-06-09T19:58:16.741Z,96.88
2023-06-09T20:08:18.768Z,98.84
2023-06-09T20:18:20.099Z,100.00
2023-06-09T20:28:21.623Z,100.00
2023-06-09T20:38:23.296Z,100.00
2023-06-09T20:58:26.404Z,100.00
2023-06-09T21:18:29.587Z,100.00
2023-06-09T21:28:31.076Z,100.00
2023-06-09T21:38:32.592Z,100.00
2023-06-09T21:48:34.269Z,100.00
2023-06-09T21:58:35.780Z,100.00
2023-06-09T22:08:39.126Z,100.00
2023-06-09T22:28:40.364Z,100.00
2023-06-09T22:38:41.896Z,100.00
2023-06-09T22:48:43.389Z,100.00
2023-06-09T22:58:45.103Z,100.00
2023-06-09T23:08:46.432Z,100.00
2023-06-09T23:18:47.969Z,100.00
2023-06-09T23:28:49.458Z,100.00
2023-06-09T23:38:50.969Z,100.00
2023-06-09T23:48:52.495Z,100.00
2023-06-09T23:58:53.966Z,100.00
